This is the latest recevied weather packets stored in our database for station/object 9W2KHE-10. If no packets are shown the sender has not sent any weather packets the latest 10 day(s).
| Time | Temp. | Humidity | Pressure | Rain* | Wind** | Luminosity | Snow |
|---|---|---|---|---|---|---|---|
| 1777769725 | 27.78° C | 69% | 1011.7 hPa | - | - | - | - |
| 1777768825 | 27.78° C | 68% | 1011.4 hPa | - | - | - | - |
| 1777767925 | 28.33° C | 67% | 1011 hPa | - | - | - | - |
| 1777767025 | 28.33° C | 67% | 1010.8 hPa | - | - | - | - |
| 1777766125 | 28.33° C | 65% | 1010.5 hPa | - | - | - | - |
| 1777765225 | 28.33° C | 65% | 1010.4 hPa | - | - | - | - |
| 1777764324 | 28.33° C | 65% | 1010.1 hPa | - | - | - | - |
| 1777763424 | 28.33° C | 65% | 1010.2 hPa | - | - | - | - |
| 1777762524 | 28.33° C | 64% | 1010.1 hPa | - | - | - | - |
| 1777761624 | 28.33° C | 64% | 1010 hPa | - | - | - | - |
| 1777760724 | 28.33° C | 64% | 1009.9 hPa | - | - | - | - |
| 1777759824 | 28.33° C | 64% | 1009.9 hPa | - | - | - | - |
| 1777758924 | 28.33° C | 64% | 1009.9 hPa | - | - | - | - |
| 1777758024 | 28.33° C | 63% | 1009.9 hPa | - | - | - | - |
| 1777757124 | 28.89° C | 63% | 1009.9 hPa | - | - | - | - |
| 1777755323 | 31.11° C | 55% | 1009.8 hPa | - | - | - | - |
| 1777738798 | 29.44° C | 63% | 1012.1 hPa | - | - | - | - |
| 1777737898 | 29.44° C | 63% | 1012.1 hPa | - | - | - | - |
| 1777736997 | 29.44° C | 62% | 1012.1 hPa | - | - | - | - |
| 1777736097 | 29.44° C | 62% | 1012.1 hPa | - | - | - | - |
| 1777735197 | 30° C | 63% | 1011.9 hPa | - | - | - | - |
| 1777734297 | 30° C | 63% | 1011.9 hPa | - | - | - | - |
| 1777733397 | 30° C | 62% | 1011.8 hPa | - | - | - | - |
| 1777732497 | 30° C | 62% | 1011.9 hPa | - | - | - | - |
| 1777731597 | 30° C | 62% | 1011.7 hPa | - | - | - | - |
* Rain since midnight (hover to see other rain measurements)
** Current wind speed in m/s (hover to see current wind gust speed)